Time;durP1;ratioP1;P1;durP2;ratioP2;P2;SDS_P1;SDS_P2;PMS_P1;PMS_P2;Temp;Humidity;BMP_temperature;BMP_pressure;BME280_temperature;BME280_humidity;BME280_pressure;Samples;Min_cycle;Max_cycle;Signal;HPM_P1;HPM_P2
2022/05/16 00:02:11;;;;;;;5.93;5.38;;;21.00;99.90;;;;;;5002318;28;20212;-71
2022/05/16 00:04:40;;;;;;;5.53;5.13;;;21.00;99.90;;;;;;4999569;28;20683;-71
2022/05/16 00:07:07;;;;;;;6.03;5.43;;;21.00;99.90;;;;;;5000285;28;20216;-72
2022/05/16 00:09:34;;;;;;;6.10;5.60;;;21.00;99.90;;;;;;5004698;28;20220;-72
2022/05/16 00:12:03;;;;;;;6.20;5.80;;;20.90;99.90;;;;;;5002141;28;21047;-72
2022/05/16 00:14:30;;;;;;;7.80;5.85;;;20.90;99.90;;;;;;5000198;28;20876;-71
2022/05/16 00:16:57;;;;;;;6.55;5.88;;;20.80;99.90;;;;;;5000181;28;20231;-72
2022/05/16 00:19:24;;;;;;;5.75;5.20;;;20.80;99.90;;;;;;5002101;28;20230;-72
2022/05/16 00:21:51;;;;;;;6.35;5.78;;;20.70;99.90;;;;;;5001114;28;20285;-73
2022/05/16 00:24:24;;;;;;;5.93;5.53;;;20.70;99.90;;;;;;4997613;28;20208;-72
2022/05/16 00:26:51;;;;;;;5.95;5.45;;;20.70;99.90;;;;;;5004311;28;20227;-72
2022/05/16 00:29:19;;;;;;;6.00;5.43;;;20.70;99.90;;;;;;5000064;28;20232;-72
2022/05/16 00:31:46;;;;;;;6.25;5.75;;;20.70;99.90;;;;;;4998243;28;20610;-71
2022/05/16 00:34:13;;;;;;;6.25;5.75;;;20.70;99.90;;;;;;4997568;28;20612;-71
2022/05/16 00:36:42;;;;;;;6.60;6.10;;;20.70;99.90;;;;;;5000208;28;20278;-71
2022/05/16 00:39:09;;;;;;;7.55;6.85;;;20.60;99.90;;;;;;5001192;28;20489;-72
2022/05/16 00:41:36;;;;;;;6.53;5.95;;;20.50;99.90;;;;;;4999823;28;20281;-72
2022/05/16 00:44:04;;;;;;;7.28;6.20;;;20.50;99.90;;;;;;4999189;28;20211;-71
2022/05/16 00:46:33;;;;;;;6.60;6.00;;;20.40;99.90;;;;;;5002206;28;20223;-71
2022/05/16 00:49:03;;;;;;;6.63;6.03;;;20.40;99.90;;;;;;4997991;28;20220;-71
2022/05/16 00:51:33;;;;;;;6.30;5.80;;;20.30;99.90;;;;;;4999724;28;20228;-71
2022/05/16 00:54:09;;;;;;;7.00;6.43;;;20.30;99.90;;;;;;4998729;28;20244;-71
2022/05/16 00:56:37;;;;;;;7.22;6.63;;;20.30;99.90;;;;;;5003997;28;20219;-72
2022/05/16 00:59:04;;;;;;;7.85;7.15;;;20.20;99.90;;;;;;4995943;28;20229;-72
2022/05/16 01:07:03;;;;;;;6.75;6.25;;;19.90;99.90;;;;;;4998590;28;20870;-72
2022/05/16 01:09:31;;;;;;;6.63;5.95;;;19.90;99.90;;;;;;5000730;28;20266;-71
2022/05/16 01:11:59;;;;;;;6.80;6.22;;;19.80;99.90;;;;;;4998848;28;20216;-72
2022/05/16 01:14:42;;;;;;;7.50;6.90;;;19.70;99.90;;;;;;5001361;28;20198;-72
2022/05/16 01:17:10;;;;;;;7.60;7.00;;;19.60;99.90;;;;;;5001638;28;20223;-72
2022/05/16 01:19:37;;;;;;;6.80;6.30;;;19.60;99.90;;;;;;4999874;28;20267;-72
2022/05/16 01:22:10;;;;;;;6.40;5.90;;;19.60;99.90;;;;;;4999734;28;20249;-72
2022/05/16 01:24:39;;;;;;;6.03;5.53;;;19.70;99.90;;;;;;4998831;28;20217;-72
2022/05/16 01:27:06;;;;;;;7.00;6.40;;;19.70;99.90;;;;;;4998107;28;20228;-72
2022/05/16 01:29:33;;;;;;;9.57;6.90;;;19.70;99.90;;;;;;4996443;28;20228;-71
2022/05/16 01:32:00;;;;;;;6.40;5.80;;;19.70;99.90;;;;;;4994803;28;20650;-71
2022/05/16 01:34:27;;;;;;;7.28;6.68;;;19.70;99.90;;;;;;4994915;28;20197;-72
2022/05/16 01:36:54;;;;;;;6.78;6.18;;;19.60;99.90;;;;;;4999365;28;20224;-72
2022/05/16 01:39:22;;;;;;;6.32;5.82;;;19.50;99.90;;;;;;4998842;28;20219;-72
2022/05/16 01:41:50;;;;;;;6.55;6.05;;;19.50;99.90;;;;;;4996693;28;20224;-71
2022/05/16 01:44:17;;;;;;;6.40;5.93;;;19.50;99.90;;;;;;4999611;28;20282;-72
2022/05/16 01:46:44;;;;;;;6.30;5.80;;;19.50;99.90;;;;;;4998973;28;20225;-71
2022/05/16 01:49:12;;;;;;;6.95;6.35;;;19.60;99.90;;;;;;4996663;28;20212;-72
2022/05/16 01:51:40;;;;;;;7.00;6.38;;;19.60;99.90;;;;;;5000553;28;20231;-71
2022/05/16 01:54:07;;;;;;;7.30;6.70;;;19.60;99.90;;;;;;4996448;28;20227;-72
2022/05/16 01:56:35;;;;;;;7.10;6.50;;;19.60;99.90;;;;;;4996621;28;20219;-72
2022/05/16 01:59:05;;;;;;;6.63;6.13;;;19.60;99.90;;;;;;4997692;28;20228;-71
2022/05/16 02:01:33;;;;;;;7.63;6.85;;;19.50;99.90;;;;;;5001228;28;20765;-71
2022/05/16 02:04:00;;;;;;;7.63;6.93;;;19.40;99.90;;;;;;4998762;28;20634;-72
2022/05/16 02:06:27;;;;;;;8.43;7.72;;;19.40;99.90;;;;;;5001484;28;20295;-72
2022/05/16 02:08:54;;;;;;;7.18;6.47;;;19.40;99.90;;;;;;4997656;28;20279;-72
2022/05/16 02:11:21;;;;;;;7.78;7.18;;;19.40;99.90;;;;;;5001051;28;20216;-71
2022/05/16 02:13:48;;;;;;;7.18;6.55;;;19.40;99.90;;;;;;4998279;28;20721;-72
2022/05/16 02:16:17;;;;;;;8.10;7.43;;;19.40;99.90;;;;;;4999068;28;20220;-72
2022/05/16 02:18:44;;;;;;;8.40;7.70;;;19.40;99.90;;;;;;5001946;28;20222;-72
2022/05/16 02:26:46;;;;;;;7.78;7.00;;;19.30;99.90;;;;;;5000760;28;20215;-71
2022/05/16 02:29:14;;;;;;;7.70;6.97;;;19.40;99.90;;;;;;4997813;28;20721;-72
2022/05/16 02:31:43;;;;;;;8.10;7.30;;;19.40;99.90;;;;;;4998213;28;20270;-72
2022/05/16 02:34:10;;;;;;;8.32;7.60;;;19.50;99.90;;;;;;4998934;28;20646;-72
2022/05/16 02:36:37;;;;;;;7.60;6.95;;;19.50;99.90;;;;;;5000387;28;20216;-72
2022/05/16 02:39:05;;;;;;;7.68;7.07;;;19.50;99.90;;;;;;5000154;28;20582;-72
2022/05/16 02:41:32;;;;;;;6.97;6.38;;;19.40;99.90;;;;;;5001185;28;20303;-72
2022/05/16 02:43:59;;;;;;;7.13;6.07;;;19.40;99.90;;;;;;5003840;28;20605;-72
2022/05/16 02:46:26;;;;;;;6.95;6.35;;;19.40;99.90;;;;;;5001695;28;20225;-72
2022/05/16 02:48:55;;;;;;;7.03;6.50;;;19.40;99.90;;;;;;5004110;28;20212;-71
2022/05/16 02:51:22;;;;;;;6.85;6.35;;;19.40;99.90;;;;;;5003278;28;20220;-71
2022/05/16 02:53:49;;;;;;;7.13;6.60;;;19.40;99.90;;;;;;5003645;28;20213;-71
2022/05/16 02:56:16;;;;;;;6.50;6.00;;;19.30;99.90;;;;;;5005567;28;20212;-71
2022/05/16 02:58:44;;;;;;;6.80;6.28;;;19.30;99.90;;;;;;5001556;28;20653;-70
2022/05/16 03:01:11;;;;;;;7.38;6.78;;;19.30;99.90;;;;;;5004905;28;20309;-72
2022/05/16 03:03:39;;;;;;;6.20;5.70;;;19.30;99.90;;;;;;5002950;28;20291;-72
2022/05/16 03:06:08;;;;;;;7.28;6.68;;;19.20;99.90;;;;;;5003851;28;20312;-71
2022/05/16 03:08:36;;;;;;;6.88;6.38;;;19.20;99.90;;;;;;5004384;28;20655;-72
2022/05/16 03:11:03;;;;;;;6.60;6.10;;;19.20;99.90;;;;;;5005678;28;20228;-72
2022/05/16 03:13:31;;;;;;;7.07;6.47;;;19.10;99.90;;;;;;5003091;28;20231;-72
2022/05/16 03:15:59;;;;;;;6.97;6.38;;;19.10;99.90;;;;;;4999243;28;20221;-71
2022/05/16 03:18:29;;;;;;;6.70;6.10;;;19.00;99.90;;;;;;5001463;28;20279;-72
2022/05/16 03:20:56;;;;;;;7.90;7.25;;;18.90;99.90;;;;;;5001401;28;20287;-72
2022/05/16 03:23:25;;;;;;;6.75;6.25;;;18.90;99.90;;;;;;5002742;28;20229;-72
2022/05/16 03:25:53;;;;;;;5.97;5.57;;;18.80;99.90;;;;;;5004421;28;20231;-71
2022/05/16 03:28:20;;;;;;;7.20;6.70;;;18.80;99.90;;;;;;5004171;28;20604;-72
2022/05/16 03:30:48;;;;;;;7.07;6.57;;;18.80;99.90;;;;;;5003428;28;20237;-72
2022/05/16 03:33:16;;;;;;;6.75;6.20;;;18.90;99.90;;;;;;5006307;28;20220;-72
2022/05/16 03:35:43;;;;;;;6.10;5.68;;;18.90;99.90;;;;;;4998534;28;20197;-72
2022/05/16 03:40:41;;;;;;;7.05;6.35;;;18.90;99.90;;;;;;5002764;28;20221;-71
2022/05/16 03:40:57;;;;;;;7.57;6.90;;;18.90;99.90;;;;;;5004592;28;20272;-72
2022/05/16 03:43:25;;;;;;;7.85;7.15;;;18.80;99.90;;;;;;5002408;28;20579;-72
2022/05/16 03:45:52;;;;;;;7.07;6.45;;;18.70;99.90;;;;;;4998015;28;20315;-72
2022/05/16 03:48:19;;;;;;;6.43;5.93;;;18.70;99.90;;;;;;5003922;28;20769;-72
2022/05/16 03:50:46;;;;;;;7.05;6.38;;;18.80;99.90;;;;;;5002455;28;20196;-72
2022/05/16 03:53:13;;;;;;;7.82;7.15;;;18.80;99.90;;;;;;5002446;28;20643;-71
2022/05/16 03:55:40;;;;;;;6.97;6.45;;;18.80;99.90;;;;;;4999970;28;20196;-72
2022/05/16 03:58:09;;;;;;;6.93;6.38;;;18.80;99.90;;;;;;5003100;28;20220;-71
2022/05/16 04:00:36;;;;;;;7.22;6.72;;;18.70;99.90;;;;;;5005218;28;20208;-72
2022/05/16 04:03:03;;;;;;;7.95;7.30;;;18.80;99.90;;;;;;5002672;28;20200;-72
2022/05/16 04:05:30;;;;;;;7.68;6.97;;;18.70;99.90;;;;;;5005089;28;20262;-72
2022/05/16 04:07:58;;;;;;;7.07;6.47;;;18.70;99.90;;;;;;5000000;28;20236;-72
2022/05/16 04:10:25;;;;;;;6.90;6.30;;;18.70;99.90;;;;;;5001197;28;20208;-71
2022/05/16 04:12:52;;;;;;;6.80;6.20;;;18.70;99.90;;;;;;5002659;28;20267;-72
2022/05/16 04:15:22;;;;;;;7.22;6.72;;;18.70;99.90;;;;;;5002455;28;20259;-72
2022/05/16 04:17:49;;;;;;;7.53;6.93;;;18.70;99.90;;;;;;5009853;28;20224;-72
2022/05/16 04:20:18;;;;;;;6.65;6.15;;;18.70;99.90;;;;;;5010087;28;20200;-72
2022/05/16 04:22:45;;;;;;;7.43;6.82;;;18.70;99.90;;;;;;5011647;28;20256;-71
2022/05/16 04:25:15;;;;;;;6.95;6.45;;;18.70;99.90;;;;;;5000466;28;20220;-71
2022/05/16 04:27:43;;;;;;;7.68;6.97;;;18.60;99.90;;;;;;5002748;28;20228;-72
2022/05/16 04:30:11;;;;;;;7.43;6.82;;;18.60;99.90;;;;;;5004650;28;20196;-71
2022/05/16 04:32:40;;;;;;;6.95;6.45;;;18.60;99.90;;;;;;5002524;28;20267;-71
2022/05/16 04:35:08;;;;;;;7.40;6.65;;;18.60;99.90;;;;;;5003270;28;20560;-72
2022/05/16 04:37:35;;;;;;;6.80;6.20;;;18.70;99.90;;;;;;5002928;28;20223;-72
2022/05/16 04:40:04;;;;;;;7.00;6.45;;;18.80;99.90;;;;;;5007455;28;20199;-72
2022/05/16 04:42:42;;;;;;;6.72;6.22;;;18.70;99.90;;;;;;5001032;28;20228;-71
2022/05/16 04:45:13;;;;;;;7.10;6.60;;;18.80;99.90;;;;;;5003564;28;20797;-72
2022/05/16 04:47:42;;;;;;;6.63;6.03;;;18.80;99.90;;;;;;5001655;28;20224;-72
2022/05/16 04:50:12;;;;;;;7.10;6.50;;;18.80;99.90;;;;;;5004987;28;20655;-71
2022/05/16 04:52:39;;;;;;;6.63;6.03;;;18.80;99.90;;;;;;5000423;28;20228;-71
2022/05/16 04:55:07;;;;;;;6.25;5.75;;;18.90;99.90;;;;;;5000185;28;20196;-71
2022/05/16 04:57:34;;;;;;;7.40;6.70;;;18.90;99.90;;;;;;5003370;28;20216;-72
2022/05/16 05:00:01;;;;;;;7.72;7.03;;;18.90;99.90;;;;;;4997734;28;20274;-72
2022/05/16 05:02:28;;;;;;;8.35;7.55;;;19.00;99.90;;;;;;4997780;28;20223;-71
2022/05/16 05:04:56;;;;;;;8.27;7.30;;;19.10;99.90;;;;;;5003113;28;20204;-72
2022/05/16 05:07:24;;;;;;;8.63;7.82;;;19.20;99.90;;;;;;5000375;28;20227;-72
2022/05/16 05:15:20;;;;;;;7.30;6.70;;;19.50;99.90;;;;;;5002698;28;20281;-72
2022/05/16 05:17:47;;;;;;;7.63;7.03;;;19.50;99.90;;;;;;5006495;28;20244;-71
2022/05/16 05:20:16;;;;;;;7.40;6.80;;;19.60;99.90;;;;;;5008067;28;20733;-71
2022/05/16 05:22:45;;;;;;;7.30;6.63;;;19.70;99.90;;;;;;5017368;28;20218;-71
2022/05/16 05:25:15;;;;;;;6.97;6.45;;;19.80;99.90;;;;;;5027678;28;20204;-71
2022/05/16 05:30:22;;;;;;;7.85;7.25;;;20.10;99.90;;;;;;5035824;23;20436;-76
2022/05/16 05:32:49;;;;;;;7.68;7.07;;;20.30;99.90;;;;;;5020170;28;20270;-76
2022/05/16 05:35:18;;;;;;;8.77;7.82;;;20.40;99.90;;;;;;5019327;28;20196;-75
2022/05/16 05:37:45;;;;;;;7.68;6.97;;;20.50;99.90;;;;;;5018760;28;20227;-75
2022/05/16 05:40:14;;;;;;;8.77;7.97;;;20.60;99.90;;;;;;5028206;28;20211;-74
2022/05/16 05:42:41;;;;;;;8.48;7.75;;;20.70;99.90;;;;;;5028090;28;20219;-76
2022/05/16 05:45:10;;;;;;;8.80;8.10;;;20.70;99.90;;;;;;5026337;28;20254;-75
2022/05/16 05:47:38;;;;;;;9.88;8.98;;;20.90;99.90;;;;;;5023678;28;20250;-76
2022/05/16 05:50:06;;;;;;;9.07;8.35;;;21.00;99.90;;;;;;5026300;28;20215;-75
2022/05/16 05:52:34;;;;;;;9.65;8.73;;;21.00;99.90;;;;;;5024405;28;20231;-76
2022/05/16 05:55:01;;;;;;;9.55;8.73;;;20.90;99.90;;;;;;5024804;28;20215;-75
2022/05/16 05:57:28;;;;;;;9.40;8.50;;;20.90;99.90;;;;;;5023792;28;20219;-76
2022/05/16 05:59:57;;;;;;;8.40;7.70;;;20.80;99.90;;;;;;5027490;28;20219;-76
2022/05/16 06:02:25;;;;;;;8.13;7.43;;;20.90;99.90;;;;;;5027401;28;20748;-76
2022/05/16 06:04:53;;;;;;;8.60;7.90;;;20.90;99.90;;;;;;5025161;28;20215;-76
2022/05/16 06:07:20;;;;;;;8.55;7.85;;;20.90;99.90;;;;;;5026084;28;20223;-77
2022/05/16 06:09:48;;;;;;;9.93;8.85;;;21.00;99.90;;;;;;5031792;28;20457;-77
2022/05/16 06:12:15;;;;;;;8.65;7.85;;;21.00;99.90;;;;;;5025590;28;20235;-77
2022/05/16 06:14:43;;;;;;;9.30;8.50;;;21.00;99.90;;;;;;5030073;28;20717;-76
2022/05/16 06:17:11;;;;;;;9.15;8.23;;;21.00;99.90;;;;;;5030543;28;20258;-77
2022/05/16 06:19:38;;;;;;;9.27;8.40;;;21.00;99.90;;;;;;5027913;28;20302;-77
2022/05/16 06:22:05;;;;;;;8.90;8.20;;;20.90;99.90;;;;;;5029386;28;20649;-77
2022/05/16 06:27:18;;;;;;;9.15;8.20;;;21.00;99.90;;;;;;5030218;28;20580;-77
2022/05/16 06:29:46;;;;;;;8.40;7.70;;;21.00;99.90;;;;;;5030556;28;20227;-77
2022/05/16 06:32:14;;;;;;;8.48;7.78;;;21.10;99.90;;;;;;5026441;28;20220;-77
2022/05/16 06:34:41;;;;;;;8.45;7.68;;;21.20;99.90;;;;;;5028835;28;20223;-76
2022/05/16 06:37:08;;;;;;;9.40;8.60;;;21.50;99.90;;;;;;5030385;28;20211;-77
2022/05/16 06:39:35;;;;;;;9.13;8.23;;;21.90;99.90;;;;;;5031268;28;20223;-77
2022/05/16 06:42:02;;;;;;;10.13;9.25;;;22.10;99.90;;;;;;5026560;28;20219;-76
2022/05/16 06:44:30;;;;;;;10.43;9.50;;;22.30;99.90;;;;;;5027727;28;20211;-77
2022/05/16 06:46:57;;;;;;;9.50;8.70;;;22.40;99.90;;;;;;5028305;28;20265;-77
2022/05/16 06:49:24;;;;;;;9.13;8.23;;;22.60;99.90;;;;;;5030395;28;20605;-76
2022/05/16 06:51:51;;;;;;;10.20;9.18;;;22.80;99.90;;;;;;5027322;28;20721;-77
2022/05/16 06:54:18;;;;;;;9.10;8.40;;;23.00;99.90;;;;;;5028686;28;20254;-77
2022/05/16 06:56:45;;;;;;;9.05;8.20;;;23.00;99.90;;;;;;5030200;28;20676;-77
2022/05/16 06:59:13;;;;;;;9.68;8.88;;;23.10;99.90;;;;;;5027086;28;20779;-76
2022/05/16 07:01:41;;;;;;;10.50;9.48;;;23.20;99.90;;;;;;5038307;28;20204;-78
2022/05/16 07:04:08;;;;;;;9.50;8.68;;;23.30;99.90;;;;;;5026332;28;20204;-77
2022/05/16 07:06:35;;;;;;;10.13;9.23;;;23.40;99.90;;;;;;5025883;28;20199;-77
2022/05/16 07:09:02;;;;;;;8.48;7.88;;;23.50;99.90;;;;;;5031961;28;20847;-77
2022/05/16 07:11:30;;;;;;;10.40;9.40;;;23.60;99.90;;;;;;5028356;28;20320;-77
2022/05/16 07:13:57;;;;;;;10.75;9.75;;;23.60;99.90;;;;;;5027540;28;20227;-77
2022/05/16 07:16:24;;;;;;;9.52;8.63;;;23.80;99.90;;;;;;5027508;28;21871;-77
2022/05/16 07:18:52;;;;;;;10.38;9.48;;;23.90;99.90;;;;;;5028770;28;20223;-77
2022/05/16 07:21:19;;;;;;;8.60;7.90;;;24.00;99.90;;;;;;5029450;28;20206;-77
2022/05/16 07:23:46;;;;;;;9.52;8.77;;;24.30;99.90;;;;;;5028099;28;20215;-77
2022/05/16 07:28:59;;;;;;;10.73;9.63;;;24.40;99.90;;;;;;5026665;28;20230;-77
2022/05/16 07:31:26;;;;;;;12.38;8.82;;;24.40;99.90;;;;;;5027752;28;20630;-77
2022/05/16 07:33:54;;;;;;;9.13;8.32;;;24.50;99.90;;;;;;5028882;28;20251;-76
2022/05/16 07:36:21;;;;;;;9.60;8.70;;;24.70;99.90;;;;;;5029538;28;20192;-77
2022/05/16 07:38:50;;;;;;;10.27;9.18;;;24.70;99.90;;;;;;5026911;28;20231;-76
2022/05/16 07:41:17;;;;;;;10.10;9.20;;;24.80;99.90;;;;;;5025612;28;20196;-77
2022/05/16 07:43:45;;;;;;;9.57;8.40;;;24.80;99.90;;;;;;5028986;28;20273;-76
2022/05/16 07:46:12;;;;;;;11.27;9.57;;;24.80;99.90;;;;;;5027416;28;20212;-78
2022/05/16 07:48:40;;;;;;;10.18;9.13;;;24.90;99.90;;;;;;5027462;28;20234;-77
2022/05/16 07:51:08;;;;;;;9.52;8.55;;;24.80;99.90;;;;;;5022291;28;20200;-77
2022/05/16 07:53:35;;;;;;;9.75;8.88;;;25.00;99.90;;;;;;5026546;28;20219;-77
2022/05/16 07:56:03;;;;;;;10.50;9.40;;;25.00;99.90;;;;;;5028345;28;20200;-76
2022/05/16 07:58:31;;;;;;;12.35;8.40;;;25.00;99.90;;;;;;5023146;28;20223;-77
2022/05/16 08:01:00;;;;;;;11.68;8.07;;;25.00;99.90;;;;;;5025772;28;20287;-77
2022/05/16 08:03:29;;;;;;;8.85;7.90;;;25.00;99.90;;;;;;5029152;28;20219;-77
2022/05/16 08:05:57;;;;;;;8.77;7.88;;;25.10;99.90;;;;;;5027275;28;20698;-78
2022/05/16 08:11:25;;;;;;;10.23;9.32;;;25.60;99.90;;;;;;4961633;28;20208;-77
2022/05/16 08:13:52;;;;;;;10.00;8.50;;;25.70;99.90;;;;;;4964126;28;20284;-77
2022/05/16 08:16:19;;;;;;;8.57;7.68;;;25.70;99.90;;;;;;4990435;28;20230;-77
2022/05/16 08:18:46;;;;;;;9.10;8.20;;;25.70;99.90;;;;;;5026211;28;20224;-77
2022/05/16 08:21:13;;;;;;;9.02;8.23;;;26.00;99.90;;;;;;5027769;28;20203;-77
2022/05/16 08:23:42;;;;;;;9.63;8.80;;;26.10;99.90;;;;;;5028133;28;20212;-77
2022/05/16 08:26:10;;;;;;;9.25;8.35;;;26.00;99.90;;;;;;5026909;28;20662;-77
2022/05/16 08:28:38;;;;;;;9.75;8.82;;;26.00;99.90;;;;;;5027599;28;20246;-77
2022/05/16 08:31:06;;;;;;;9.30;8.50;;;26.10;99.90;;;;;;5018776;28;20293;-76
2022/05/16 08:33:34;;;;;;;8.32;7.65;;;26.10;99.90;;;;;;5023692;28;20223;-76
2022/05/16 08:41:37;;;;;;;8.02;7.43;;;26.60;99.90;;;;;;5025393;28;20207;-77
2022/05/16 08:44:13;;;;;;;9.52;8.25;;;26.90;99.90;;;;;;5022778;28;20273;-77
2022/05/16 08:46:47;;;;;;;9.18;8.27;;;27.10;99.90;;;;;;5025785;28;20290;-77
2022/05/16 08:49:20;;;;;;;9.63;8.75;;;27.20;99.90;;;;;;5024159;28;20230;-77
2022/05/16 08:51:52;;;;;;;9.48;8.60;;;27.00;99.90;;;;;;5024184;28;20666;-77
2022/05/16 08:54:32;;;;;;;9.52;8.73;;;26.80;99.90;;;;;;5024755;28;20239;-76
2022/05/16 08:57:02;;;;;;;8.77;8.13;;;26.70;99.90;;;;;;5023135;28;20208;-76
2022/05/16 08:59:32;;;;;;;8.55;7.85;;;26.50;99.90;;;;;;5023914;28;20227;-77
2022/05/16 09:02:05;;;;;;;7.75;7.03;;;26.60;99.90;;;;;;5020572;28;20207;-77
2022/05/16 09:04:42;;;;;;;8.65;7.95;;;26.80;99.90;;;;;;5027136;28;20200;-77
2022/05/16 09:07:16;;;;;;;9.45;8.55;;;27.10;99.90;;;;;;5023855;28;20199;-77
2022/05/16 09:09:56;;;;;;;9.55;8.63;;;27.40;99.90;;;;;;5024726;28;20219;-78
2022/05/16 09:12:28;;;;;;;9.00;8.25;;;27.40;99.90;;;;;;5025103;28;20262;-77
2022/05/16 09:15:11;;;;;;;8.88;7.93;;;27.40;99.90;;;;;;5025293;28;20889;-77
2022/05/16 09:17:50;;;;;;;9.68;8.68;;;27.40;99.90;;;;;;5019290;28;20215;-77
2022/05/16 09:20:30;;;;;;;9.90;8.95;;;27.40;99.90;;;;;;5020651;28;20216;-77
2022/05/16 09:23:05;;;;;;;9.45;8.30;;;27.50;99.90;;;;;;5024530;28;20215;-77
2022/05/16 09:25:52;;;;;;;8.88;8.13;;;27.50;99.90;;;;;;5026664;28;20191;-76
2022/05/16 09:28:37;;;;;;;8.68;7.78;;;27.50;99.90;;;;;;5027691;28;20717;-77
2022/05/16 09:31:14;;;;;;;8.52;7.82;;;27.60;99.90;;;;;;5023748;28;20224;-78
2022/05/16 09:33:46;;;;;;;9.15;8.25;;;27.60;99.90;;;;;;5018627;28;20250;-77
2022/05/16 09:36:15;;;;;;;8.13;7.43;;;27.50;99.90;;;;;;5018460;28;20219;-76
2022/05/16 09:38:45;;;;;;;10.20;8.65;;;27.60;99.90;;;;;;5011583;28;20228;-78
2022/05/16 09:41:20;;;;;;;9.20;8.40;;;27.60;99.90;;;;;;5009210;28;20340;-77
2022/05/16 09:43:58;;;;;;;9.27;8.38;;;27.80;99.90;;;;;;5009971;28;20216;-77
2022/05/16 09:46:35;;;;;;;8.00;7.25;;;27.80;99.90;;;;;;5000238;28;20196;-77
2022/05/16 09:49:11;;;;;;;8.10;7.47;;;27.80;99.90;;;;;;5018712;28;20733;-77
2022/05/16 09:51:47;;;;;;;8.70;7.90;;;27.80;99.90;;;;;;5025906;28;20625;-77
2022/05/16 09:54:28;;;;;;;7.10;6.40;;;27.70;99.90;;;;;;5027002;28;20725;-77
2022/05/16 09:57:16;;;;;;;8.43;7.63;;;27.80;99.90;;;;;;5026954;28;20257;-77
2022/05/16 09:59:47;;;;;;;8.52;7.82;;;28.00;99.90;;;;;;5025030;28;20230;-76
2022/05/16 10:02:22;;;;;;;9.18;8.07;;;28.00;99.90;;;;;;5024478;28;20200;-77
2022/05/16 10:04:55;;;;;;;7.80;7.10;;;28.10;99.90;;;;;;5022803;28;20211;-79
2022/05/16 10:07:28;;;;;;;8.52;7.82;;;28.00;99.90;;;;;;5026258;28;20650;-78
2022/05/16 10:09:56;;;;;;;9.75;8.27;;;28.00;99.90;;;;;;5027506;28;20258;-78
2022/05/16 10:12:27;;;;;;;9.52;8.27;;;28.10;99.90;;;;;;5020929;28;20259;-76
2022/05/16 10:14:55;;;;;;;8.70;7.95;;;28.10;99.90;;;;;;5020885;28;20230;-75
2022/05/16 10:17:28;;;;;;;8.55;7.80;;;28.10;99.90;;;;;;5025099;28;20669;-77
2022/05/16 10:19:59;;;;;;;7.63;6.93;;;28.10;99.90;;;;;;5026176;28;20223;-77
2022/05/16 10:22:27;;;;;;;8.00;7.07;;;28.40;99.90;;;;;;5028020;28;20208;-78
2022/05/16 10:24:57;;;;;;;7.80;7.05;;;28.70;99.90;;;;;;5025611;28;20748;-76
2022/05/16 10:27:29;;;;;;;8.15;7.32;;;29.00;99.90;;;;;;5024135;28;20203;-77
2022/05/16 10:29:59;;;;;;;8.25;7.45;;;29.00;99.90;;;;;;5025820;28;20219;-76
2022/05/16 10:35:23;;;;;;;7.72;6.82;;;29.00;99.90;;;;;;5022100;28;20238;-76
2022/05/16 10:37:55;;;;;;;8.98;8.18;;;29.00;99.90;;;;;;5019168;28;20188;-77
2022/05/16 10:40:29;;;;;;;7.97;6.88;;;29.00;99.90;;;;;;5019782;28;20250;-76
2022/05/16 10:43:19;;;;;;;7.20;6.50;;;29.00;99.90;;;;;;5026167;28;20286;-76
2022/05/16 10:45:52;;;;;;;8.82;6.40;;;29.20;99.90;;;;;;5013996;28;20223;-75
2022/05/16 10:48:31;;;;;;;7.20;6.50;;;29.20;99.90;;;;;;5022695;28;20228;-75
2022/05/16 10:51:04;;;;;;;8.00;5.80;;;29.30;99.90;;;;;;5025644;28;20776;-75
2022/05/16 10:53:35;;;;;;;6.45;5.85;;;29.30;99.90;;;;;;5026020;28;20535;-76
2022/05/16 10:56:20;;;;;;;6.55;5.93;;;29.40;99.90;;;;;;5022685;28;20219;-75
2022/05/16 10:58:58;;;;;;;7.50;5.38;;;29.50;99.90;;;;;;5025480;28;20635;-75
2022/05/16 11:01:32;;;;;;;6.32;5.72;;;29.60;99.90;;;;;;5029191;28;20226;-75
2022/05/16 11:04:39;;;;;;;7.78;6.60;;;29.70;99.90;;;;;;5028054;28;20249;-76
2022/05/16 11:07:16;;;;;;;7.95;6.28;;;29.80;99.90;;;;;;5018276;28;20257;-76
2022/05/16 11:09:52;;;;;;;6.28;5.65;;;29.70;99.90;;;;;;5030605;28;20701;-73
2022/05/16 11:12:26;;;;;;;6.50;5.90;;;29.70;99.90;;;;;;5030464;28;20214;-76
2022/05/16 11:15:04;;;;;;;6.13;5.53;;;29.80;99.90;;;;;;5030753;28;20559;-75
2022/05/16 11:17:40;;;;;;;7.00;6.30;;;29.70;99.90;;;;;;5029407;28;20223;-75
2022/05/16 11:20:10;;;;;;;6.40;5.85;;;29.70;99.90;;;;;;5031431;28;20215;-75
2022/05/16 11:22:41;;;;;;;10.82;6.40;;;29.70;99.90;;;;;;5031316;28;20191;-75
2022/05/16 11:25:13;;;;;;;8.45;5.78;;;29.50;99.90;;;;;;5032111;28;20223;-75
2022/05/16 11:27:55;;;;;;;6.28;5.68;;;29.50;99.90;;;;;;5028730;28;20273;-76
2022/05/16 11:30:34;;;;;;;7.05;5.75;;;29.60;99.90;;;;;;5129573;23;20232;-75
2022/05/16 11:33:13;;;;;;;7.45;5.78;;;29.60;99.90;;;;;;5000940;28;20199;-75
2022/05/16 11:35:44;;;;;;;5.90;5.40;;;29.70;99.90;;;;;;5001539;28;20712;-74
2022/05/16 11:38:37;;;;;;;8.75;5.82;;;29.40;99.90;;;;;;5002320;28;20196;-74
2022/05/16 11:41:13;;;;;;;6.93;6.10;;;29.40;99.90;;;;;;5006962;28;20231;-74
2022/05/16 11:43:44;;;;;;;7.40;5.68;;;29.30;99.90;;;;;;5006290;28;20203;-74
2022/05/16 11:46:29;;;;;;;6.22;5.55;;;29.20;99.90;;;;;;5009327;28;20196;-76
2022/05/16 11:49:17;;;;;;;6.68;5.43;;;29.10;99.90;;;;;;5011480;28;20485;-75
2022/05/16 11:52:11;;;;;;;6.10;5.03;;;29.50;99.90;;;;;;5007821;28;20204;-75
2022/05/16 11:54:43;;;;;;;7.93;5.55;;;29.70;99.90;;;;;;4988485;28;20204;-75
2022/05/16 12:03:16;;;;;;;7.97;5.50;;;29.90;99.90;;;;;;5010097;28;20211;-76
2022/05/16 12:05:46;;;;;;;7.22;5.70;;;29.90;99.90;;;;;;5009326;28;20208;-74
2022/05/16 12:08:32;;;;;;;6.65;6.05;;;29.60;99.90;;;;;;5009358;28;20196;-73
2022/05/16 12:11:12;;;;;;;6.65;5.72;;;29.30;99.90;;;;;;5006838;28;20318;-74
2022/05/16 12:14:00;;;;;;;7.75;5.72;;;29.00;99.90;;;;;;5008256;28;20207;-74
2022/05/16 12:16:32;;;;;;;5.95;5.30;;;28.50;99.90;;;;;;5017297;28;20227;-74
2022/05/16 12:19:17;;;;;;;9.55;5.72;;;27.90;99.90;;;;;;5007145;28;20532;-74
2022/05/16 12:21:56;;;;;;;6.63;5.07;;;27.40;99.90;;;;;;5008021;28;20200;-74
2022/05/16 12:24:42;;;;;;;6.53;5.63;;;27.30;99.90;;;;;;5009237;28;20278;-74
2022/05/16 12:27:25;;;;;;;7.22;5.15;;;27.20;99.90;;;;;;5005319;28;20771;-74
2022/05/16 12:29:56;;;;;;;6.03;5.22;;;27.10;99.90;;;;;;5008857;28;20220;-74
2022/05/16 12:32:47;;;;;;;6.25;5.28;;;27.00;99.90;;;;;;5009128;28;20702;-74
2022/05/16 12:35:34;;;;;;;8.50;5.63;;;26.90;99.90;;;;;;5004796;28;20250;-73
2022/05/16 12:38:02;;;;;;;7.30;3.40;;;26.70;99.90;;;;;;5013133;28;20196;-76
2022/05/16 12:40:44;;;;;;;11.10;4.50;;;26.30;99.90;;;;;;5007473;28;20224;-76
2022/05/16 12:43:31;;;;;;;7.75;3.35;;;25.50;99.90;;;;;;5009213;28;20197;-75
2022/05/16 12:46:32;;;;;;;4.70;2.65;;;24.30;99.90;;;;;;5010756;28;20202;-75
2022/05/16 12:49:21;;;;;;;4.13;2.88;;;23.40;99.90;;;;;;5012749;28;20211;-75
2022/05/16 12:51:56;;;;;;;4.22;3.15;;;23.00;99.90;;;;;;5010191;28;20204;-75
2022/05/16 12:54:42;;;;;;;3.60;3.03;;;22.80;99.90;;;;;;5007597;28;20574;-75
2022/05/16 12:57:45;;;;;;;5.47;2.83;;;22.60;99.90;;;;;;5003998;28;20223;-76
2022/05/16 13:00:17;;;;;;;7.95;3.42;;;22.40;99.90;;;;;;5011011;28;20216;-75
2022/05/16 13:02:49;;;;;;;6.82;3.90;;;22.40;99.90;;;;;;5009044;28;20250;-74
2022/05/16 13:05:26;;;;;;;5.80;3.20;;;22.20;99.90;;;;;;5008566;28;20560;-74
2022/05/16 13:08:04;;;;;;;4.82;3.30;;;21.60;99.90;;;;;;5009886;28;20211;-75
2022/05/16 13:10:37;;;;;;;6.38;3.72;;;21.00;99.90;;;;;;5012616;28;20267;-74
2022/05/16 13:13:14;;;;;;;3.63;3.33;;;20.60;99.90;;;;;;5012039;28;20223;-75
2022/05/16 13:15:47;;;;;;;4.13;3.13;;;20.30;99.90;;;;;;5027141;28;20219;-75
2022/05/16 13:18:29;;;;;;;3.92;3.33;;;20.40;99.90;;;;;;5025843;28;20199;-75
2022/05/16 13:21:00;;;;;;;3.22;2.95;;;20.50;99.90;;;;;;5026844;28;20222;-75
2022/05/16 13:23:30;;;;;;;2.80;2.60;;;20.70;99.90;;;;;;5020719;28;20239;-75
2022/05/16 13:31:34;;;;;;;3.50;2.60;;;20.40;99.90;;;;;;5027703;28;20257;-76
2022/05/16 13:34:02;;;;;;;3.15;2.67;;;20.20;99.90;;;;;;5026934;28;20222;-74
2022/05/16 13:36:29;;;;;;;3.00;2.40;;;20.10;99.90;;;;;;5023452;28;20716;-75
2022/05/16 13:38:59;;;;;;;2.47;2.28;;;20.30;99.90;;;;;;5022926;28;20220;-75
2022/05/16 13:41:28;;;;;;;1.90;1.80;;;20.40;99.90;;;;;;5020662;28;20669;-75
2022/05/16 13:43:58;;;;;;;2.03;1.92;;;20.50;99.90;;;;;;5026479;28;20249;-74
2022/05/16 13:46:26;;;;;;;4.10;2.58;;;20.60;99.90;;;;;;5025305;28;20203;-75
2022/05/16 13:48:58;;;;;;;2.25;1.48;;;20.70;99.90;;;;;;5022888;28;20277;-75
2022/05/16 13:51:25;;;;;;;2.05;1.35;;;20.70;99.90;;;;;;5025387;28;20279;-75
2022/05/16 13:53:52;;;;;;;2.08;1.55;;;20.80;99.90;;;;;;5023799;28;20223;-74